Aviation Digital Data Service (ADDS)

Output produced by METARs form (1409 UTC 21 August 2019)
found at http://www.aviationweather.gov/metar/data/
 
METAR text: PGSN 211354Z 09006KT 10SM CLR 27/25 A2987 RMK AO2 SLP135 T02720250 403220261
Conditions at: PGSN (SAIPAN/KOBLER , FM) observed 1354 UTC 21 August 2019
Temperature: 27.2°C (81°F)
Dewpoint: 25.0°C (77°F) [RH = 88%]
Pressure (altimeter): 29.87 inches Hg (1011.6 mb)
[Sea-level pressure: 1013.5 mb]
Winds: from the E (90 degrees) at 7 MPH (6 knots; 3.1 m/s)
Visibility: 10 or more miles (16+ km)
Ceiling: at least 12,000 feet AGL
Clouds: sky clear below 12,000 feet AGL
Weather: no significant weather observed at this time

METAR text: PGSN 211254Z 09005KT 10SM FEW018 28/24 A2987 RMK AO2 SLP137 T02780244
Conditions at: PGSN (SAIPAN/KOBLER , FM) observed 1254 UTC 21 August 2019
Temperature: 27.8°C (82°F)
Dewpoint: 24.4°C (76°F) [RH = 82%]
Pressure (altimeter): 29.87 inches Hg (1011.6 mb)
[Sea-level pressure: 1013.7 mb]
Winds: from the E (90 degrees) at 6 MPH (5 knots; 2.6 m/s)
Visibility: 10 or more miles (16+ km)
Ceiling: at least 12,000 feet AGL
Clouds: few clouds at 1800 feet AGL
Weather: no significant weather observed at this time

METAR text: PGSN 211154Z 07004KT 10SM FEW020 28/24 A2986 RMK AO2 SLP134 T02780244 10317 20278 51011
Conditions at: PGSN (SAIPAN/KOBLER , FM) observed 1154 UTC 21 August 2019
Temperature: 27.8°C (82°F)
Dewpoint: 24.4°C (76°F) [RH = 82%]
Pressure (altimeter): 29.86 inches Hg (1011.3 mb)
[Sea-level pressure: 1013.4 mb]
Winds: from the ENE (70 degrees) at 5 MPH (4 knots; 2.1 m/s)
Visibility: 10 or more miles (16+ km)
Ceiling: at least 12,000 feet AGL
Clouds: few clouds at 2000 feet AGL
Weather: no significant weather observed at this time

METAR text: PGSN 211054Z 06005KT 10SM FEW021 28/24 A2986 RMK AO2 SLP131 T02780244
Conditions at: PGSN (SAIPAN/KOBLER , FM) observed 1054 UTC 21 August 2019
Temperature: 27.8°C (82°F)
Dewpoint: 24.4°C (76°F) [RH = 82%]
Pressure (altimeter): 29.86 inches Hg (1011.3 mb)
[Sea-level pressure: 1013.1 mb]
Winds: from the ENE (60 degrees) at 6 MPH (5 knots; 2.6 m/s)
Visibility: 10 or more miles (16+ km)
Ceiling: at least 12,000 feet AGL
Clouds: few clouds at 2100 feet AGL
Weather: no significant weather observed at this time

METAR text: PGSN 210954Z 06006KT 10SM CLR 28/24 A2985 RMK AO2 SLP129 T02830244
Conditions at: PGSN (SAIPAN/KOBLER , FM) observed 0954 UTC 21 August 2019
Temperature: 28.3°C (83°F)
Dewpoint: 24.4°C (76°F) [RH = 79%]
Pressure (altimeter): 29.85 inches Hg (1010.9 mb)
[Sea-level pressure: 1012.9 mb]
Winds: from the ENE (60 degrees) at 7 MPH (6 knots; 3.1 m/s)
Visibility: 10 or more miles (16+ km)
Ceiling: at least 12,000 feet AGL
Clouds: sky clear below 12,000 feet AGL
Weather: no significant weather observed at this time

METAR text: PGSN 210854Z 06005KT 10SM SCT021 28/24 A2983 RMK AO2 SLP123 T02830244 53011
Conditions at: PGSN (SAIPAN/KOBLER , FM) observed 0854 UTC 21 August 2019
Temperature: 28.3°C (83°F)
Dewpoint: 24.4°C (76°F) [RH = 79%]
Pressure (altimeter): 29.83 inches Hg (1010.2 mb)
[Sea-level pressure: 1012.3 mb]
Winds: from the ENE (60 degrees) at 6 MPH (5 knots; 2.6 m/s)
Visibility: 10 or more miles (16+ km)
Ceiling: at least 12,000 feet AGL
Clouds: scattered clouds at 2100 feet AGL
Weather: no significant weather observed at this time

METAR text: PGSN 210754Z 06005KT 10SM SCT026 30/24 A2982 RMK AO2 SLP119 T03000244
Conditions at: PGSN (SAIPAN/KOBLER , FM) observed 0754 UTC 21 August 2019
Temperature: 30.0°C (86°F)
Dewpoint: 24.4°C (76°F) [RH = 72%]
Pressure (altimeter): 29.82 inches Hg (1009.9 mb)
[Sea-level pressure: 1011.9 mb]
Winds: from the ENE (60 degrees) at 6 MPH (5 knots; 2.6 m/s)
Visibility: 10 or more miles (16+ km)
Ceiling: at least 12,000 feet AGL
Clouds: scattered clouds at 2600 feet AGL
Weather: no significant weather observed at this time

METAR text: PGSN 210654Z 07008KT 10SM CLR 31/24 A2980 RMK AO2 SLP112 T03060244
Conditions at: PGSN (SAIPAN/KOBLER , FM) observed 0654 UTC 21 August 2019
Temperature: 30.6°C (87°F)
Dewpoint: 24.4°C (76°F) [RH = 70%]
Pressure (altimeter): 29.80 inches Hg (1009.2 mb)
[Sea-level pressure: 1011.2 mb]
Winds: from the ENE (70 degrees) at 9 MPH (8 knots; 4.1 m/s)
Visibility: 10 or more miles (16+ km)
Ceiling: at least 12,000 feet AGL
Clouds: sky clear below 12,000 feet AGL
Weather: no significant weather observed at this time

METAR text: PGSN 210554Z COR 06008KT 10SM SCT035 32/24 A2980 RMK AO2 SLP112 T03170239 10322 20300 56010
Conditions at: PGSN (SAIPAN/KOBLER , FM) observed 0554 UTC 21 August 2019
Temperature: 31.7°C (89°F)
Dewpoint: 23.9°C (75°F) [RH = 63%]
Pressure (altimeter): 29.80 inches Hg (1009.2 mb)
[Sea-level pressure: 1011.2 mb]
Winds: from the ENE (60 degrees) at 9 MPH (8 knots; 4.1 m/s)
Visibility: 10 or more miles (16+ km)
Ceiling: at least 12,000 feet AGL
Clouds: scattered clouds at 3500 feet AGL
Weather: no significant weather observed at this time

METAR text: PGSN 210454Z 08008KT 10SM SCT025 SCT050 32/24 A2980 RMK AO2 SLP112 T03170239
Conditions at: PGSN (SAIPAN/KOBLER , FM) observed 0454 UTC 21 August 2019
Temperature: 31.7°C (89°F)
Dewpoint: 23.9°C (75°F) [RH = 63%]
Pressure (altimeter): 29.80 inches Hg (1009.2 mb)
[Sea-level pressure: 1011.2 mb]
Winds: from the E (80 degrees) at 9 MPH (8 knots; 4.1 m/s)
Visibility: 10 or more miles (16+ km)
Ceiling: at least 12,000 feet AGL
Clouds: scattered clouds at 2500 feet AGL
scattered clouds at 5000 feet AGL
Weather: no significant weather observed at this time

METAR text: PGSN 210354Z 07008KT 10SM FEW023 SCT040 32/24 A2981 RMK AO2 SLP116 T03220244
Conditions at: PGSN (SAIPAN/KOBLER , FM) observed 0354 UTC 21 August 2019
Temperature: 32.2°C (90°F)
Dewpoint: 24.4°C (76°F) [RH = 64%]
Pressure (altimeter): 29.81 inches Hg (1009.6 mb)
[Sea-level pressure: 1011.6 mb]
Winds: from the ENE (70 degrees) at 9 MPH (8 knots; 4.1 m/s)
Visibility: 10 or more miles (16+ km)
Ceiling: at least 12,000 feet AGL
Clouds: few clouds at 2300 feet AGL
scattered clouds at 4000 feet AGL
Weather: no significant weather observed at this time

METAR text: PGSN 210254Z 06007KT 10SM FEW021 SCT030 31/24 A2983 RMK AO2 SLP122 T03110244 58016
Conditions at: PGSN (SAIPAN/KOBLER , FM) observed 0254 UTC 21 August 2019
Temperature: 31.1°C (88°F)
Dewpoint: 24.4°C (76°F) [RH = 68%]
Pressure (altimeter): 29.83 inches Hg (1010.2 mb)
[Sea-level pressure: 1012.2 mb]
Winds: from the ENE (60 degrees) at 8 MPH (7 knots; 3.6 m/s)
Visibility: 10 or more miles (16+ km)
Ceiling: at least 12,000 feet AGL
Clouds: few clouds at 2100 feet AGL
scattered clouds at 3000 feet AGL
Weather: no significant weather observed at this time

METAR text: PGSN 210154Z 09006KT 10SM SCT022 SCT033 32/25 A2986 RMK AO2 SLP132 T03170250
Conditions at: PGSN (SAIPAN/KOBLER , FM) observed 0154 UTC 21 August 2019
Temperature: 31.7°C (89°F)
Dewpoint: 25.0°C (77°F) [RH = 68%]
Pressure (altimeter): 29.86 inches Hg (1011.3 mb)
[Sea-level pressure: 1013.2 mb]
Winds: from the E (90 degrees) at 7 MPH (6 knots; 3.1 m/s)
Visibility: 10 or more miles (16+ km)
Ceiling: at least 12,000 feet AGL
Clouds: scattered clouds at 2200 feet AGL
scattered clouds at 3300 feet AGL
Weather: no significant weather observed at this time

METAR text: PGSN 210054Z 09006KT 10SM SCT018 SCT033 31/24 A2987 RMK AO2 SLP136 T03110244
Conditions at: PGSN (SAIPAN/KOBLER , FM) observed 0054 UTC 21 August 2019
Temperature: 31.1°C (88°F)
Dewpoint: 24.4°C (76°F) [RH = 68%]
Pressure (altimeter): 29.87 inches Hg (1011.6 mb)
[Sea-level pressure: 1013.6 mb]
Winds: from the E (90 degrees) at 7 MPH (6 knots; 3.1 m/s)
Visibility: 10 or more miles (16+ km)
Ceiling: at least 12,000 feet AGL
Clouds: scattered clouds at 1800 feet AGL
scattered clouds at 3300 feet AGL
Weather: no significant weather observed at this time

METAR text: PGSN 202354Z 11005KT 10SM SCT018 SCT035 31/25 A2988 RMK AO2 SLP139 T03060250 10311 20261 51016
Conditions at: PGSN (SAIPAN/KOBLER , FM) observed 2354 UTC 20 August 2019
Temperature: 30.6°C (87°F)
Dewpoint: 25.0°C (77°F) [RH = 72%]
Pressure (altimeter): 29.88 inches Hg (1011.9 mb)
[Sea-level pressure: 1013.9 mb]
Winds: from the ESE (110 degrees) at 6 MPH (5 knots; 2.6 m/s)
Visibility: 10 or more miles (16+ km)
Ceiling: at least 12,000 feet AGL
Clouds: scattered clouds at 1800 feet AGL
scattered clouds at 3500 feet AGL
Weather: no significant weather observed at this time

METAR text: PGSN 202254Z VRB06KT 10SM SCT018 31/24 A2988 RMK AO2 SLP139 T03060244
Conditions at: PGSN (SAIPAN/KOBLER , FM) observed 2254 UTC 20 August 2019
Temperature: 30.6°C (87°F)
Dewpoint: 24.4°C (76°F) [RH = 70%]
Pressure (altimeter): 29.88 inches Hg (1011.9 mb)
[Sea-level pressure: 1013.9 mb]
Winds: variable direction winds at 7 MPH (6 knots; 3.1 m/s)
Visibility: 10 or more miles (16+ km)
Ceiling: at least 12,000 feet AGL
Clouds: scattered clouds at 1800 feet AGL
Weather: no significant weather observed at this time

METAR text: PGSN 202154Z 00000KT 10SM FEW018 SCT026 29/25 A2986 RMK AO2 SLP133 T02940250
Conditions at: PGSN (SAIPAN/KOBLER , FM) observed 2154 UTC 20 August 2019
Temperature: 29.4°C (85°F)
Dewpoint: 25.0°C (77°F) [RH = 77%]
Pressure (altimeter): 29.86 inches Hg (1011.3 mb)
[Sea-level pressure: 1013.3 mb]
Winds: calm
Visibility: 10 or more miles (16+ km)
Ceiling: at least 12,000 feet AGL
Clouds: few clouds at 1800 feet AGL
scattered clouds at 2600 feet AGL
Weather: no significant weather observed at this time

METAR text: PGSN 202054Z 00000KT 10SM CLR 27/24 A2983 RMK AO2 SLP123 T02720244 53010
Conditions at: PGSN (SAIPAN/KOBLER , FM) observed 2054 UTC 20 August 2019
Temperature: 27.2°C (81°F)
Dewpoint: 24.4°C (76°F) [RH = 85%]
Pressure (altimeter): 29.83 inches Hg (1010.2 mb)
[Sea-level pressure: 1012.3 mb]
Winds: calm
Visibility: 10 or more miles (16+ km)
Ceiling: at least 12,000 feet AGL
Clouds: sky clear below 12,000 feet AGL
Weather: no significant weather observed at this time

METAR text: PGSN 201954Z 00000KT 10SM CLR 27/24 A2982 RMK AO2 SLP118 T02670239 $
Conditions at: PGSN (SAIPAN/KOBLER , FM) observed 1954 UTC 20 August 2019
Temperature: 26.7°C (80°F)
Dewpoint: 23.9°C (75°F) [RH = 85%]
Pressure (altimeter): 29.82 inches Hg (1009.9 mb)
[Sea-level pressure: 1011.8 mb]
Winds: calm
Visibility: 10 or more miles (16+ km)
Ceiling: at least 12,000 feet AGL
Clouds: sky clear below 12,000 feet AGL
Weather:
SOME DATA ABOVE MAY BE INACCURATE!!!
"$" is an indication the sensor requires maintenance

METAR text: PGSN 201854Z 08003KT 10SM CLR 27/24 A2981 RMK AO2 SLP115 T02720244 $
Conditions at: PGSN (SAIPAN/KOBLER , FM) observed 1854 UTC 20 August 2019
Temperature: 27.2°C (81°F)
Dewpoint: 24.4°C (76°F) [RH = 85%]
Pressure (altimeter): 29.81 inches Hg (1009.6 mb)
[Sea-level pressure: 1011.5 mb]
Winds: from the E (80 degrees) at 3 MPH (3 knots; 1.5 m/s)
Visibility: 10 or more miles (16+ km)
Ceiling: at least 12,000 feet AGL
Clouds: sky clear below 12,000 feet AGL
Weather:
SOME DATA ABOVE MAY BE INACCURATE!!!
"$" is an indication the sensor requires maintenance

METAR text: PGSN 201754Z 09005KT 10SM FEW017 27/24 A2980 RMK AO2 SLP112 T02720244 10278 20261 56009 $
Conditions at: PGSN (SAIPAN/KOBLER , FM) observed 1754 UTC 20 August 2019
Temperature: 27.2°C (81°F)
Dewpoint: 24.4°C (76°F) [RH = 85%]
Pressure (altimeter): 29.80 inches Hg (1009.2 mb)
[Sea-level pressure: 1011.2 mb]
Winds: from the E (90 degrees) at 6 MPH (5 knots; 2.6 m/s)
Visibility: 10 or more miles (16+ km)
Ceiling: at least 12,000 feet AGL
Clouds: few clouds at 1700 feet AGL
Weather:
SOME DATA ABOVE MAY BE INACCURATE!!!
"$" is an indication the sensor requires maintenance

METAR text: PGSN 201654Z 12004KT 10SM CLR 27/24 A2980 RMK AO2 SLP113 T02670244 $
Conditions at: PGSN (SAIPAN/KOBLER , FM) observed 1654 UTC 20 August 2019
Temperature: 26.7°C (80°F)
Dewpoint: 24.4°C (76°F) [RH = 87%]
Pressure (altimeter): 29.80 inches Hg (1009.2 mb)
[Sea-level pressure: 1011.3 mb]
Winds: from the ESE (120 degrees) at 5 MPH (4 knots; 2.1 m/s)
Visibility: 10 or more miles (16+ km)
Ceiling: at least 12,000 feet AGL
Clouds: sky clear below 12,000 feet AGL
Weather:
SOME DATA ABOVE MAY BE INACCURATE!!!
"$" is an indication the sensor requires maintenance

METAR text: PGSN 201554Z 00000KT 10SM CLR 26/24 A2981 RMK AO2 SLP115 T02610244 $
Conditions at: PGSN (SAIPAN/KOBLER , FM) observed 1554 UTC 20 August 2019
Temperature: 26.1°C (79°F)
Dewpoint: 24.4°C (76°F) [RH = 90%]
Pressure (altimeter): 29.81 inches Hg (1009.6 mb)
[Sea-level pressure: 1011.5 mb]
Winds: calm
Visibility: 10 or more miles (16+ km)
Ceiling: at least 12,000 feet AGL
Clouds: sky clear below 12,000 feet AGL
Weather:
SOME DATA ABOVE MAY BE INACCURATE!!!
"$" is an indication the sensor requires maintenance

METAR text: PGSN 201454Z 00000KT 10SM CLR 27/24 A2983 RMK AO2 SLP121 T02670244 58014 $
Conditions at: PGSN (SAIPAN/KOBLER , FM) observed 1454 UTC 20 August 2019
Temperature: 26.7°C (80°F)
Dewpoint: 24.4°C (76°F) [RH = 87%]
Pressure (altimeter): 29.83 inches Hg (1010.2 mb)
[Sea-level pressure: 1012.1 mb]
Winds: calm
Visibility: 10 or more miles (16+ km)
Ceiling: at least 12,000 feet AGL
Clouds: sky clear below 12,000 feet AGL
Weather:
SOME DATA ABOVE MAY BE INACCURATE!!!
"$" is an indication the sensor requires maintenance

METAR text: PGSN 201354Z 00000KT 10SM SCT040 27/24 A2984 RMK AO2 SLP127 T02670244 403220267 $
Conditions at: PGSN (SAIPAN/KOBLER , FM) observed 1354 UTC 20 August 2019
Temperature: 26.7°C (80°F)
Dewpoint: 24.4°C (76°F) [RH = 87%]
Pressure (altimeter): 29.84 inches Hg (1010.6 mb)
[Sea-level pressure: 1012.7 mb]
Winds: calm
Visibility: 10 or more miles (16+ km)
Ceiling: at least 12,000 feet AGL
Clouds: scattered clouds at 4000 feet AGL
Weather:
SOME DATA ABOVE MAY BE INACCURATE!!!
"$" is an indication the sensor requires maintenance

METAR text: PGSN 201254Z 00000KT 10SM FEW019 SCT023 27/25 A2987 RMK AO2 SLP135 T02720250 $
Conditions at: PGSN (SAIPAN/KOBLER , FM) observed 1254 UTC 20 August 2019
Temperature: 27.2°C (81°F)
Dewpoint: 25.0°C (77°F) [RH = 88%]
Pressure (altimeter): 29.87 inches Hg (1011.6 mb)
[Sea-level pressure: 1013.5 mb]
Winds: calm
Visibility: 10 or more miles (16+ km)
Ceiling: at least 12,000 feet AGL
Clouds: few clouds at 1900 feet AGL
scattered clouds at 2300 feet AGL
Weather:
SOME DATA ABOVE MAY BE INACCURATE!!!
"$" is an indication the sensor requires maintenance

METAR text: PGSN 201231Z 00000KT 10SM SCT019 28/24 A2987 RMK AO2 T02780244 /
Conditions at: PGSN (SAIPAN/KOBLER , FM) observed 1231 UTC 20 August 2019
Temperature: 27.8°C (82°F)
Dewpoint: 24.4°C (76°F) [RH = 82%]
Pressure (altimeter): 29.87 inches Hg (1011.6 mb)
Winds: calm
Visibility: 10 or more miles (16+ km)
Ceiling: at least 12,000 feet AGL
Clouds: scattered clouds at 1900 feet AGL
Weather: no significant weather observed at this time

METAR text: PGSN 201154Z COR 12003KT 10SM SCT025 28/24 A2987 RMK AO2 SLP136 70001 T02780239 10306 20278 53014 $
Conditions at: PGSN (SAIPAN/KOBLER , FM) observed 1154 UTC 20 August 2019
Temperature: 27.8°C (82°F)
Dewpoint: 23.9°C (75°F) [RH = 79%]
Pressure (altimeter): 29.87 inches Hg (1011.6 mb)
[Sea-level pressure: 1013.6 mb]
Winds: from the ESE (120 degrees) at 3 MPH (3 knots; 1.5 m/s)
Visibility: 10 or more miles (16+ km)
Ceiling: at least 12,000 feet AGL
Clouds: scattered clouds at 2500 feet AGL
Weather:
SOME DATA ABOVE MAY BE INACCURATE!!!
"$" is an indication the sensor requires maintenance

METAR text: PGSN 201054Z 00000KT 10SM SCT070 28/24 A2986 RMK AO2 SLP132 T02780244
Conditions at: PGSN (SAIPAN/KOBLER , FM) observed 1054 UTC 20 August 2019
Temperature: 27.8°C (82°F)
Dewpoint: 24.4°C (76°F) [RH = 82%]
Pressure (altimeter): 29.86 inches Hg (1011.3 mb)
[Sea-level pressure: 1013.2 mb]
Winds: calm
Visibility: 10 or more miles (16+ km)
Ceiling: at least 12,000 feet AGL
Clouds: scattered clouds at 7000 feet AGL
Weather: no significant weather observed at this time

METAR text: PGSN 200954Z 00000KT 10SM FEW020 SCT045 28/24 A2984 RMK AO2 SLP125 T02830244
Conditions at: PGSN (SAIPAN/KOBLER , FM) observed 0954 UTC 20 August 2019
Temperature: 28.3°C (83°F)
Dewpoint: 24.4°C (76°F) [RH = 79%]
Pressure (altimeter): 29.84 inches Hg (1010.6 mb)
[Sea-level pressure: 1012.5 mb]
Winds: calm
Visibility: 10 or more miles (16+ km)
Ceiling: at least 12,000 feet AGL
Clouds: few clouds at 2000 feet AGL
scattered clouds at 4500 feet AGL
Weather: no significant weather observed at this time

METAR text: PGSN 200854Z 17004KT 10SM FEW019 28/24 A2983 RMK AO2 SLP122 T02830244 53016
Conditions at: PGSN (SAIPAN/KOBLER , FM) observed 0854 UTC 20 August 2019
Temperature: 28.3°C (83°F)
Dewpoint: 24.4°C (76°F) [RH = 79%]
Pressure (altimeter): 29.83 inches Hg (1010.2 mb)
[Sea-level pressure: 1012.2 mb]
Winds: from the S (170 degrees) at 5 MPH (4 knots; 2.1 m/s)
Visibility: 10 or more miles (16+ km)
Ceiling: at least 12,000 feet AGL
Clouds: few clouds at 1900 feet AGL
Weather: no significant weather observed at this time

METAR text: PGSN 200754Z 15005KT 10SM SCT045 29/24 A2981 RMK AO2 SLP115 T02940244
Conditions at: PGSN (SAIPAN/KOBLER , FM) observed 0754 UTC 20 August 2019
Temperature: 29.4°C (85°F)
Dewpoint: 24.4°C (76°F) [RH = 75%]
Pressure (altimeter): 29.81 inches Hg (1009.6 mb)
[Sea-level pressure: 1011.5 mb]
Winds: from the SSE (150 degrees) at 6 MPH (5 knots; 2.6 m/s)
Visibility: 10 or more miles (16+ km)
Ceiling: at least 12,000 feet AGL
Clouds: scattered clouds at 4500 feet AGL
Weather: no significant weather observed at this time

METAR text: PGSN 200654Z 17007KT 10SM SCT023 30/24 A2979 RMK AO2 SLP108 T03000244
Conditions at: PGSN (SAIPAN/KOBLER , FM) observed 0654 UTC 20 August 2019
Temperature: 30.0°C (86°F)
Dewpoint: 24.4°C (76°F) [RH = 72%]
Pressure (altimeter): 29.79 inches Hg (1008.9 mb)
[Sea-level pressure: 1010.8 mb]
Winds: from the S (170 degrees) at 8 MPH (7 knots; 3.6 m/s)
Visibility: 10 or more miles (16+ km)
Ceiling: at least 12,000 feet AGL
Clouds: scattered clouds at 2300 feet AGL
Weather: no significant weather observed at this time

METAR text: PGSN 200554Z 17007KT 10SM FEW020 31/24 A2978 RMK AO2 SLP106 T03060244 10322 20306 55006
Conditions at: PGSN (SAIPAN/KOBLER , FM) observed 0554 UTC 20 August 2019
Temperature: 30.6°C (87°F)
Dewpoint: 24.4°C (76°F) [RH = 70%]
Pressure (altimeter): 29.78 inches Hg (1008.5 mb)
[Sea-level pressure: 1010.6 mb]
Winds: from the S (170 degrees) at 8 MPH (7 knots; 3.6 m/s)
Visibility: 10 or more miles (16+ km)
Ceiling: at least 12,000 feet AGL
Clouds: few clouds at 2000 feet AGL
Weather: no significant weather observed at this time

METAR text: PGSN 200454Z 17007KT 10SM FEW020 31/24 A2978 RMK AO2 SLP105 T03060244
Conditions at: PGSN (SAIPAN/KOBLER , FM) observed 0454 UTC 20 August 2019
Temperature: 30.6°C (87°F)
Dewpoint: 24.4°C (76°F) [RH = 70%]
Pressure (altimeter): 29.78 inches Hg (1008.5 mb)
[Sea-level pressure: 1010.5 mb]
Winds: from the S (170 degrees) at 8 MPH (7 knots; 3.6 m/s)
Visibility: 10 or more miles (16+ km)
Ceiling: at least 12,000 feet AGL
Clouds: few clouds at 2000 feet AGL
Weather: no significant weather observed at this time

METAR text: PGSN 200354Z 17009KT 10SM CLR 31/24 A2979 RMK AO2 SLP109 T03110244
Conditions at: PGSN (SAIPAN/KOBLER , FM) observed 0354 UTC 20 August 2019
Temperature: 31.1°C (88°F)
Dewpoint: 24.4°C (76°F) [RH = 68%]
Pressure (altimeter): 29.79 inches Hg (1008.9 mb)
[Sea-level pressure: 1010.9 mb]
Winds: from the S (170 degrees) at 10 MPH (9 knots; 4.6 m/s)
Visibility: 10 or more miles (16+ km)
Ceiling: at least 12,000 feet AGL
Clouds: sky clear below 12,000 feet AGL
Weather: no significant weather observed at this time

METAR text: PGSN 200254Z 18009KT 10SM FEW020 32/24 A2980 RMK AO2 SLP112 T03170244 58014
Conditions at: PGSN (SAIPAN/KOBLER , FM) observed 0254 UTC 20 August 2019
Temperature: 31.7°C (89°F)
Dewpoint: 24.4°C (76°F) [RH = 65%]
Pressure (altimeter): 29.80 inches Hg (1009.2 mb)
[Sea-level pressure: 1011.2 mb]
Winds: from the S (180 degrees) at 10 MPH (9 knots; 4.6 m/s)
Visibility: 10 or more miles (16+ km)
Ceiling: at least 12,000 feet AGL
Clouds: few clouds at 2000 feet AGL
Weather: no significant weather observed at this time

Forecast for: PGSN (SAIPAN/KOBLER , FM)
Text: PGSN 211128Z 2112/2212 08006KT P6SM VCSH FEW020 SCT050
Forecast period: 1200 UTC 21 August 2019 to 1200 UTC 22 August 2019
Forecast type: FROM: standard forecast or significant change
Winds: from the E (80 degrees) at 7 MPH (6 knots; 3.1 m/s)
Visibility: 6 or more miles 10+ km)
Ceiling: at least 12,000 feet AGL
Clouds: few clouds at 2000 feet AGL
scattered clouds at 5000 feet AGL
Weather: VCSH  (showers in vicinity)